Time;durP1;ratioP1;P1;durP2;ratioP2;P2;SDS_P1;SDS_P2;PMS_P1;PMS_P2;Temp;Humidity;BMP_temperature;BMP_pressure;BME280_temperature;BME280_humidity;BME280_pressure;Samples;Min_cycle;Max_cycle;Signal;HPM_P1;HPM_P2
2023/05/17 00:01:50;;;;;;;9.90;8.40;;;;;;;13.92;83.11;100298.73;102762;277;97758;-54
2023/05/17 00:04:38;;;;;;;10.70;8.60;;;;;;;13.90;83.01;100298.52;102733;276;121074;-57
2023/05/17 00:07:16;;;;;;;10.30;9.20;;;;;;;13.90;83.12;100296.93;102725;276;105316;-57
2023/05/17 00:09:56;;;;;;;10.10;9.00;;;;;;;13.92;83.12;100300.61;102741;276;113485;-54
2023/05/17 00:12:40;;;;;;;10.70;9.70;;;;;;;13.91;83.34;100296.92;102720;277;96995;-54
2023/05/17 00:15:17;;;;;;;10.30;9.00;;;;;;;13.93;83.14;100299.02;102746;277;97374;-55
2023/05/17 00:17:54;;;;;;;9.00;8.10;;;;;;;13.92;83.17;100297.64;102726;276;121493;-55
2023/05/17 00:20:33;;;;;;;9.90;8.90;;;;;;;13.92;83.28;100296.98;102774;277;105338;-54
2023/05/17 00:23:14;;;;;;;10.10;8.70;;;;;;;13.91;83.21;100299.57;102699;276;114113;-54
2023/05/17 00:25:56;;;;;;;11.40;8.80;;;;;;;13.94;83.23;100297.59;102714;276;96452;-54
2023/05/17 00:28:40;;;;;;;9.80;8.80;;;;;;;13.95;83.22;100298.93;102721;277;97436;-56
2023/05/17 00:31:28;;;;;;;10.10;9.10;;;;;;;13.95;83.43;100299.44;102696;277;121025;-56
2023/05/17 00:34:10;;;;;;;9.90;8.90;;;;;;;13.94;83.31;100301.69;102720;277;105876;-55
2023/05/17 00:36:50;;;;;;;10.50;9.50;;;;;;;13.94;83.31;100295.80;102565;277;113833;-55
2023/05/17 00:39:28;;;;;;;10.90;9.90;;;;;;;13.90;83.41;100295.98;102545;277;96249;-56
2023/05/17 00:42:03;;;;;;;11.20;9.70;;;;;;;13.90;83.36;100292.55;102576;265;96354;-56
2023/05/17 00:44:42;;;;;;;10.50;9.30;;;;;;;13.90;83.42;100293.81;102600;277;117926;-58
2023/05/17 00:47:21;;;;;;;12.20;9.20;;;;;;;13.90;83.43;100299.11;102553;278;107504;-58
2023/05/17 00:50:01;;;;;;;10.20;9.20;;;;;;;13.89;83.56;100306.05;102610;277;114633;-55
2023/05/17 00:52:42;;;;;;;11.30;9.40;;;;;;;13.89;83.39;100302.58;102540;278;97133;-55
2023/05/17 00:55:29;;;;;;;10.50;9.30;;;;;;;13.86;83.58;100303.39;102549;278;98203;-57
2023/05/17 00:58:12;;;;;;;11.00;9.90;;;;;;;13.85;83.61;100302.05;102600;277;121019;-58
2023/05/17 01:00:48;;;;;;;11.90;10.80;;;;;;;13.86;83.62;100307.05;102659;277;105797;-55
2023/05/17 01:03:27;;;;;;;11.50;10.40;;;;;;;13.89;83.55;100307.76;102635;277;113542;-54
2023/05/17 01:06:15;;;;;;;11.70;10.50;;;;;;;13.89;83.56;100310.40;102581;277;97397;-56
2023/05/17 01:08:55;;;;;;;11.80;10.70;;;;;;;13.87;83.74;100303.92;102623;277;96191;-55
2023/05/17 01:11:42;;;;;;;11.90;10.40;;;;;;;13.85;83.87;100301.34;102547;277;120899;-54
2023/05/17 01:14:40;;;;;;;12.80;10.70;;;;;;;13.82;84.00;100302.84;102512;277;104552;-58
2023/05/17 01:17:29;;;;;;;11.40;10.30;;;;;;;13.79;84.20;100299.81;102491;277;113509;-57
2023/05/17 01:20:15;;;;;;;12.20;11.00;;;;;;;13.83;84.07;100300.63;102547;277;97400;-54
2023/05/17 01:23:11;;;;;;;12.30;11.00;;;;;;;13.82;84.12;100292.57;102532;278;96503;-54
2023/05/17 01:26:09;;;;;;;11.90;10.50;;;;;;;13.77;84.31;100293.27;102586;277;120773;-54
2023/05/17 01:28:54;;;;;;;12.60;11.30;;;;;;;13.77;84.30;100293.79;102539;277;105174;-58
2023/05/17 01:31:38;;;;;;;12.50;11.20;;;;;;;13.73;84.47;100295.44;102364;277;114121;-58
2023/05/17 01:34:24;;;;;;;12.40;11.20;;;;;;;13.71;84.50;100289.20;102592;277;96611;-55
2023/05/17 01:37:04;;;;;;;12.90;11.60;;;;;;;13.70;84.52;100291.55;102729;277;98143;-54
2023/05/17 01:39:46;;;;;;;11.40;10.20;;;;;;;13.67;84.63;100293.56;102731;277;120162;-57
2023/05/17 01:42:32;;;;;;;11.80;10.50;;;;;;;13.66;84.57;100294.77;102735;277;104800;-56
2023/05/17 01:45:21;;;;;;;11.50;10.30;;;;;;;13.65;84.67;100294.95;102742;277;114763;-54
2023/05/17 01:48:21;;;;;;;11.60;10.50;;;;;;;13.62;84.67;100291.45;102720;277;96178;-54
2023/05/17 01:50:58;;;;;;;11.40;10.30;;;;;;;13.59;84.75;100294.66;102782;277;97875;-54
2023/05/17 01:53:48;;;;;;;12.30;11.00;;;;;;;13.60;84.68;100295.38;102553;278;120937;-55
2023/05/17 01:56:37;;;;;;;12.10;10.90;;;;;;;13.60;84.99;100293.11;102743;277;105246;-54
2023/05/17 01:59:25;;;;;;;11.40;10.30;;;;;;;13.59;84.76;100291.92;102740;277;114604;-54
2023/05/17 02:02:07;;;;;;;11.00;9.80;;;;;;;13.57;85.02;100296.25;102752;277;96881;-52
2023/05/17 02:04:47;;;;;;;11.00;9.90;;;;;;;13.51;85.06;100295.33;102825;277;96820;-57
2023/05/17 02:07:28;;;;;;;12.00;10.70;;;;;;;13.48;85.29;100298.05;102779;276;120071;-58
2023/05/17 02:10:09;;;;;;;11.90;10.20;;;;;;;13.45;85.40;100298.07;102820;276;103883;-57
2023/05/17 02:12:47;;;;;;;12.00;10.80;;;;;;;13.44;85.40;100300.61;102785;276;114197;-57
2023/05/17 02:15:29;;;;;;;11.20;10.10;;;;;;;13.48;85.26;100302.65;102729;276;97170;-53
2023/05/17 02:18:06;;;;;;;11.50;10.50;;;;;;;13.51;85.44;100301.30;102742;276;97947;-54
2023/05/17 02:20:50;;;;;;;11.70;10.50;;;;;;;13.49;85.58;100303.56;102716;276;121658;-55
2023/05/17 02:23:33;;;;;;;12.10;11.00;;;;;;;13.52;85.41;100307.33;102733;276;104158;-57
2023/05/17 02:26:13;;;;;;;13.80;12.30;;;;;;;13.52;85.45;100304.48;102516;276;114631;-57
2023/05/17 02:28:52;;;;;;;14.50;12.90;;;;;;;13.48;85.64;100303.48;102738;276;96683;-58
2023/05/17 02:31:33;;;;;;;13.50;12.10;;;;;;;13.48;85.58;100304.23;102536;276;97816;-58
2023/05/17 02:34:13;;;;;;;14.80;13.30;;;;;;;13.46;85.79;100309.52;102721;276;120858;-52
2023/05/17 02:36:54;;;;;;;14.00;12.70;;;;;;;13.44;85.83;100311.98;102737;276;105959;-53
2023/05/17 02:39:36;;;;;;;14.70;13.40;;;;;;;13.40;85.94;100314.02;102743;276;114097;-53
2023/05/17 02:42:14;;;;;;;14.60;13.20;;;;;;;13.42;85.88;100313.31;102733;276;96714;-53
2023/05/17 02:44:51;;;;;;;15.30;13.80;;;;;;;13.42;85.98;100306.58;102744;276;96117;-57
2023/05/17 02:47:26;;;;;;;16.50;15.00;;;;;;;13.40;86.19;100305.77;102695;276;120117;-57
2023/05/17 02:50:04;;;;;;;16.10;14.60;;;;;;;13.35;86.22;100305.84;102744;276;105167;-54
2023/05/17 02:52:44;;;;;;;15.10;13.60;;;;;;;13.37;86.23;100316.86;102724;276;113574;-54
2023/05/17 02:55:21;;;;;;;15.90;14.20;;;;;;;13.38;86.43;100321.14;102698;276;96036;-54
2023/05/17 02:58:01;;;;;;;16.80;15.10;;;;;;;13.37;86.23;100325.16;102778;276;97510;-55
2023/05/17 03:00:37;;;;;;;15.40;13.90;;;;;;;13.30;86.66;100328.38;102759;276;120342;-53
2023/05/17 03:03:16;;;;;;;15.50;13.90;;;;;;;13.30;86.61;100333.59;102748;276;105708;-54
2023/05/17 03:05:52;;;;;;;16.60;15.00;;;;;;;13.34;86.50;100333.59;102745;276;113463;-57
2023/05/17 03:08:30;;;;;;;16.40;14.90;;;;;;;13.33;86.48;100331.92;102721;276;95697;-58
2023/05/17 03:11:07;;;;;;;16.80;15.30;;;;;;;13.30;86.68;100330.67;102790;276;96168;-56
2023/05/17 03:13:50;;;;;;;16.60;15.00;;;;;;;13.36;86.58;100333.52;102803;276;120538;-54
2023/05/17 03:16:28;;;;;;;15.50;14.00;;;;;;;13.34;86.61;100338.60;102800;265;105939;-54
2023/05/17 03:19:09;;;;;;;17.10;15.40;;;;;;;13.32;86.64;100336.55;102823;276;114535;-51
2023/05/17 03:21:51;;;;;;;15.60;14.00;;;;;;;13.34;86.69;100339.73;102816;276;96768;-54
2023/05/17 03:24:33;;;;;;;14.90;13.50;;;;;;;13.37;86.80;100343.19;102858;276;98152;-54
2023/05/17 03:27:13;;;;;;;16.00;14.50;;;;;;;13.36;86.83;100341.40;102754;276;120439;-54
2023/05/17 03:29:49;;;;;;;15.90;13.80;;;;;;;13.37;86.73;100348.80;102836;276;105551;-58
2023/05/17 03:32:24;;;;;;;16.10;14.60;;;;;;;13.34;86.85;100348.20;102789;276;115020;-56
2023/05/17 03:35:02;;;;;;;15.80;14.10;;;;;;;13.36;86.94;100350.55;102836;276;96916;-57
2023/05/17 03:37:44;;;;;;;15.60;14.10;;;;;;;13.35;86.91;100344.08;102768;276;97321;-57
2023/05/17 03:40:19;;;;;;;15.30;13.90;;;;;;;13.40;86.96;100341.88;102763;276;120912;-58
2023/05/17 03:43:04;;;;;;;15.00;13.60;;;;;;;13.41;87.04;100347.30;102595;276;106051;-58
2023/05/17 03:45:48;;;;;;;15.60;14.00;;;;;;;13.36;87.06;100349.25;102713;276;113748;-58
2023/05/17 03:48:40;;;;;;;15.70;13.70;;;;;;;13.37;87.14;100352.92;102721;276;97046;-58
2023/05/17 03:51:19;;;;;;;13.70;12.40;;;;;;;13.40;87.11;100351.27;102738;276;97402;-57
2023/05/17 03:54:04;;;;;;;13.00;11.80;;;;;;;13.41;87.18;100351.29;102767;276;119132;-58
2023/05/17 03:56:45;;;;;;;13.00;11.80;;;;;;;13.39;87.00;100351.13;102775;276;103620;-57
2023/05/17 03:59:25;;;;;;;13.40;12.20;;;;;;;13.40;87.20;100352.89;102705;276;114119;-57
2023/05/17 04:02:07;;;;;;;11.80;10.60;;;;;;;13.43;87.09;100353.84;102758;276;96206;-57
2023/05/17 04:04:51;;;;;;;11.40;10.30;;;;;;;13.42;87.21;100360.19;102761;276;97966;-57
2023/05/17 04:07:29;;;;;;;12.10;10.80;;;;;;;13.40;87.22;100361.56;102785;276;120095;-58
2023/05/17 04:10:10;;;;;;;11.70;10.50;;;;;;;13.37;87.36;100368.46;102746;276;105943;-54
2023/05/17 04:12:50;;;;;;;10.70;9.70;;;;;;;13.32;87.50;100368.40;102808;276;113001;-53
2023/05/17 04:15:27;;;;;;;10.00;9.10;;;;;;;13.29;87.58;100369.78;102791;276;96444;-57
2023/05/17 04:18:04;;;;;;;9.80;8.90;;;;;;;13.28;87.39;100361.56;102852;276;97444;-57
2023/05/17 04:20:39;;;;;;;10.90;8.80;;;;;;;13.31;87.24;100361.14;102834;276;120719;-53
2023/05/17 04:23:14;;;;;;;10.10;9.20;;;;;;;13.29;87.46;100363.64;102839;276;104099;-53
2023/05/17 04:25:49;;;;;;;10.80;9.10;;;;;;;13.26;87.66;100371.79;102817;276;115028;-58
2023/05/17 04:28:29;;;;;;;10.20;9.10;;;;;;;13.31;87.62;100376.67;102808;276;96519;-58
2023/05/17 04:31:16;;;;;;;9.70;8.80;;;;;;;13.33;87.73;100377.14;102804;276;98015;-57
2023/05/17 04:33:55;;;;;;;9.60;8.70;;;;;;;13.32;87.64;100378.67;102845;276;120532;-53
2023/05/17 04:36:42;;;;;;;9.60;8.70;;;;;;;13.33;87.83;100375.50;102778;277;103888;-52
2023/05/17 04:39:28;;;;;;;8.80;8.00;;;;;;;13.34;87.72;100374.63;102763;276;113360;-53
2023/05/17 04:42:09;;;;;;;8.80;7.90;;;;;;;13.31;87.97;100371.24;102708;276;97352;-54
2023/05/17 04:44:51;;;;;;;8.40;7.50;;;;;;;13.39;87.71;100371.45;102789;276;98267;-53
2023/05/17 04:47:29;;;;;;;7.80;7.00;;;;;;;13.34;87.87;100372.34;102750;277;120184;-53
2023/05/17 04:50:08;;;;;;;9.00;6.90;;;;;;;13.33;87.84;100382.09;102728;276;105486;-54
2023/05/17 04:52:47;;;;;;;7.70;7.00;;;;;;;13.32;87.94;100387.23;102723;276;113638;-54
2023/05/17 04:55:27;;;;;;;6.50;5.90;;;;;;;13.30;87.88;100392.45;102703;277;96823;-57
2023/05/17 04:58:09;;;;;;;6.10;5.50;;;;;;;13.22;88.04;100392.73;102715;276;98030;-57
2023/05/17 05:00:54;;;;;;;6.30;5.70;;;;;;;13.18;88.17;100397.54;102727;276;120358;-54
2023/05/17 05:03:37;;;;;;;6.40;5.80;;;;;;;13.14;88.02;100396.73;102530;277;105076;-52
2023/05/17 05:06:15;;;;;;;6.00;5.50;;;;;;;13.11;88.10;100400.39;102519;277;114517;-57
2023/05/17 05:08:59;;;;;;;8.40;6.50;;;;;;;13.15;88.25;100408.20;102688;276;95625;-54
2023/05/17 05:11:38;;;;;;;7.10;6.50;;;;;;;13.14;88.13;100407.27;102727;265;97946;-53
2023/05/17 05:14:21;;;;;;;6.70;6.10;;;;;;;13.20;87.96;100406.20;102716;276;120427;-54
2023/05/17 05:16:59;;;;;;;7.60;6.80;;;;;;;13.21;87.98;100406.33;102707;276;106042;-54
2023/05/17 05:19:40;;;;;;;7.40;6.70;;;;;;;13.23;88.14;100409.80;102507;277;114623;-54
2023/05/17 05:22:16;;;;;;;6.80;6.20;;;;;;;13.22;88.15;100412.15;102698;277;96737;-54
2023/05/17 05:24:57;;;;;;;6.30;5.70;;;;;;;13.18;88.33;100409.21;102747;276;97445;-58
2023/05/17 05:27:39;;;;;;;6.70;6.10;;;;;;;13.22;88.32;100405.66;102761;277;119238;-57
2023/05/17 05:30:22;;;;;;;6.80;6.10;;;;;;;13.25;88.02;100401.45;102752;277;105566;-53
2023/05/17 05:33:04;;;;;;;6.70;5.80;;;;;;;13.25;88.10;100400.45;102767;277;113613;-53
2023/05/17 05:35:46;;;;;;;6.50;5.60;;;;;;;13.31;88.22;100406.48;102780;276;96597;-59
2023/05/17 05:38:24;;;;;;;6.10;5.40;;;;;;;13.31;88.25;100403.14;102774;276;96487;-58
2023/05/17 05:41:02;;;;;;;5.50;5.00;;;;;;;13.34;88.26;100401.02;102838;276;120425;-57
2023/05/17 05:43:41;;;;;;;5.80;5.20;;;;;;;13.35;88.35;100391.59;102811;276;105745;-57
2023/05/17 05:46:27;;;;;;;5.80;5.10;;;;;;;13.35;88.41;100367.86;102789;276;114407;-60
2023/05/17 05:49:02;;;;;;;5.30;4.80;;;;;;;13.42;88.21;100356.94;101363;278;1715752;-57
2023/05/17 05:51:43;;;;;;;5.40;4.90;;;;;;;13.49;88.16;100360.27;102713;276;97547;-58
2023/05/17 05:54:25;;;;;;;5.50;5.00;;;;;;;13.53;88.00;100367.36;102785;276;119341;-57
2023/05/17 05:57:04;;;;;;;5.00;4.50;;;;;;;13.52;88.05;100366.20;102742;276;106420;-56
2023/05/17 05:59:47;;;;;;;5.50;5.00;;;;;;;13.56;88.01;100370.54;102770;276;114618;-57
2023/05/17 06:02:29;;;;;;;5.60;4.80;;;;;;;13.60;87.95;100372.17;102700;276;96625;-56
2023/05/17 06:05:07;;;;;;;5.60;4.80;;;;;;;13.57;87.99;100379.80;102748;276;96876;-54
2023/05/17 06:07:46;;;;;;;5.20;4.70;;;;;;;13.63;87.83;100388.98;102723;276;119515;-53
2023/05/17 06:10:27;;;;;;;5.50;5.00;;;;;;;13.68;87.88;100395.26;102751;265;103836;-58
2023/05/17 06:13:08;;;;;;;5.00;4.60;;;;;;;13.77;87.73;100404.08;102672;276;114476;-58
2023/05/17 06:15:48;;;;;;;4.90;4.30;;;;;;;13.82;87.70;100404.29;102726;276;95373;-57
2023/05/17 06:18:33;;;;;;;5.50;5.00;;;;;;;13.78;87.79;100410.29;102745;276;97481;-57
2023/05/17 06:21:07;;;;;;;5.30;4.80;;;;;;;13.71;87.72;100413.74;102713;276;119912;-54
2023/05/17 06:23:48;;;;;;;5.40;4.90;;;;;;;13.72;87.68;100414.89;102736;276;104801;-54
2023/05/17 06:26:30;;;;;;;5.50;4.90;;;;;;;13.71;87.71;100415.76;102711;276;114384;-55
2023/05/17 06:29:10;;;;;;;5.70;5.10;;;;;;;13.70;87.79;100414.23;102723;276;96145;-54
2023/05/17 06:31:49;;;;;;;5.60;5.10;;;;;;;13.68;87.86;100414.14;102816;276;96655;-52
2023/05/17 06:34:29;;;;;;;5.00;4.50;;;;;;;13.72;87.77;100417.98;102753;276;119587;-54
2023/05/17 06:37:09;;;;;;;6.10;4.80;;;;;;;13.70;87.60;100421.32;102547;278;104912;-54
2023/05/17 06:39:44;;;;;;;5.20;4.70;;;;;;;13.62;87.82;100423.45;102546;276;114709;-58
2023/05/17 06:42:29;;;;;;;5.30;4.80;;;;;;;13.59;87.79;100430.04;102708;276;96250;-57
2023/05/17 06:45:10;;;;;;;5.40;4.90;;;;;;;13.59;87.83;100440.37;102793;276;96928;-58
2023/05/17 06:47:47;;;;;;;5.60;5.10;;;;;;;13.55;87.94;100443.75;102763;276;120544;-58
2023/05/17 06:50:29;;;;;;;5.60;5.10;;;;;;;13.51;88.09;100451.01;102604;276;105521;-54
2023/05/17 06:53:10;;;;;;;5.80;5.20;;;;;;;13.54;87.95;100457.35;102781;276;114503;-54
2023/05/17 06:55:48;;;;;;;5.40;4.90;;;;;;;13.53;87.83;100461.07;102756;276;96085;-54
2023/05/17 06:58:44;;;;;;;5.30;4.80;;;;;;;13.50;88.06;100461.39;102747;276;97120;-53
2023/05/17 07:01:34;;;;;;;5.50;5.00;;;;;;;13.48;88.07;100462.69;102737;276;121108;-57
2023/05/17 07:04:19;;;;;;;6.10;5.50;;;;;;;13.53;88.12;100464.16;102815;276;106536;-57
2023/05/17 07:06:59;;;;;;;5.50;5.00;;;;;;;13.52;88.07;100456.35;102772;276;114185;-58
2023/05/17 07:09:40;;;;;;;6.70;5.20;;;;;;;13.47;88.43;100454.09;102758;276;96358;-54
2023/05/17 07:12:24;;;;;;;6.10;5.20;;;;;;;13.55;88.23;100457.31;102770;276;98110;-54
2023/05/17 07:15:08;;;;;;;5.70;5.10;;;;;;;13.56;88.15;100455.55;102739;276;119854;-53
2023/05/17 07:17:49;;;;;;;5.70;5.20;;;;;;;13.59;88.08;100454.81;102744;276;105764;-57
2023/05/17 07:20:34;;;;;;;6.10;5.50;;;;;;;13.55;88.01;100462.95;102742;276;114319;-55
2023/05/17 07:23:14;;;;;;;5.70;5.20;;;;;;;13.59;88.24;100464.75;102780;276;95914;-53
2023/05/17 07:25:58;;;;;;;6.10;5.40;;;;;;;13.65;88.41;100456.37;102821;276;97273;-54
2023/05/17 07:28:43;;;;;;;5.90;5.20;;;;;;;13.62;88.52;100458.73;102738;276;121441;-53
2023/05/17 07:31:27;;;;;;;5.30;4.80;;;;;;;13.67;88.36;100457.70;102753;265;103936;-54
2023/05/17 07:34:08;;;;;;;5.10;4.60;;;;;;;13.72;88.13;100455.44;102754;276;114136;-54
2023/05/17 07:36:52;;;;;;;5.30;4.50;;;;;;;13.71;88.22;100450.69;102781;276;96453;-54
2023/05/17 07:39:28;;;;;;;4.80;4.40;;;;;;;13.71;88.29;100455.60;102815;276;97634;-54
2023/05/17 07:42:13;;;;;;;5.10;4.60;;;;;;;13.69;88.34;100457.82;102752;276;120711;-54
2023/05/17 07:44:51;;;;;;;5.10;4.60;;;;;;;13.70;88.17;100465.27;102769;276;104648;-57
2023/05/17 07:47:36;;;;;;;5.50;5.00;;;;;;;13.68;88.21;100472.23;102740;276;114916;-57
2023/05/17 07:50:13;;;;;;;5.70;4.70;;;;;;;13.65;88.12;100480.08;102544;276;95952;-54
2023/05/17 07:52:58;;;;;;;5.20;4.70;;;;;;;13.67;88.20;100481.34;102568;276;96593;-52
2023/05/17 07:55:33;;;;;;;4.60;4.20;;;;;;;13.63;88.19;100483.46;102792;276;118257;-56
2023/05/17 07:58:14;;;;;;;4.50;3.90;;;;;;;13.56;88.11;100484.88;102819;265;104879;-58
2023/05/17 08:00:59;;;;;;;4.40;3.70;;;;;;;13.55;88.35;100485.67;102779;276;115674;-57
2023/05/17 08:03:46;;;;;;;6.10;5.50;;;;;;;13.61;88.19;100485.88;102815;276;97030;-56
2023/05/17 08:06:24;;;;;;;4.40;4.00;;;;;;;13.74;88.20;100482.80;102806;276;99154;-58
2023/05/17 08:09:01;;;;;;;4.50;4.10;;;;;;;13.86;88.14;100484.77;102748;276;120427;-56
2023/05/17 08:11:44;;;;;;;4.30;3.90;;;;;;;13.91;88.16;100484.58;102817;276;105425;-56
2023/05/17 08:14:25;;;;;;;4.00;3.70;;;;;;;13.76;88.27;100484.73;102787;276;115120;-55
2023/05/17 08:17:07;;;;;;;4.50;3.80;;;;;;;13.79;88.38;100479.64;102823;276;96027;-54
2023/05/17 08:19:44;;;;;;;3.90;3.20;;;;;;;13.87;88.29;100483.03;102805;276;97032;-54
2023/05/17 08:22:28;;;;;;;3.90;3.30;;;;;;;13.92;88.01;100481.81;102775;276;120998;-54
2023/05/17 08:25:08;;;;;;;2.90;2.60;;;;;;;13.84;88.00;100483.15;102806;265;104240;-55
2023/05/17 08:27:45;;;;;;;3.90;3.50;;;;;;;13.76;88.26;100487.45;102744;276;113056;-54
2023/05/17 08:30:26;;;;;;;3.90;3.40;;;;;;;13.78;88.16;100491.20;102769;276;96689;-54
2023/05/17 08:33:03;;;;;;;4.00;3.50;;;;;;;13.79;88.14;100493.33;102778;265;97082;-54
2023/05/17 08:35:40;;;;;;;6.70;4.40;;;;;;;13.82;87.90;100497.55;102571;277;120559;-53
2023/05/17 08:38:24;;;;;;;5.30;3.70;;;;;;;13.88;87.98;100498.48;102795;272;104935;-53
2023/05/17 08:41:04;;;;;;;4.70;4.10;;;;;;;14.12;87.93;100491.67;102762;276;114639;-54
2023/05/17 08:43:51;;;;;;;5.40;4.90;;;;;;;14.15;87.88;100496.39;102782;276;97760;-57
2023/05/17 08:46:37;;;;;;;4.40;4.00;;;;;;;13.98;87.72;100506.14;102788;276;97394;-56
2023/05/17 08:49:17;;;;;;;6.50;4.70;;;;;;;13.97;87.53;100510.39;102767;276;120616;-56
2023/05/17 08:51:55;;;;;;;4.80;4.20;;;;;;;14.05;87.61;100515.36;102778;276;106136;-56
2023/05/17 08:54:29;;;;;;;4.80;4.40;;;;;;;14.10;87.37;100520.02;102810;276;114305;-56
2023/05/17 08:57:10;;;;;;;7.40;4.90;;;;;;;14.02;87.23;100529.15;102796;276;97246;-57
2023/05/17 08:59:52;;;;;;;6.60;5.20;;;;;;;13.82;87.09;100531.82;102827;276;97889;-54
2023/05/17 09:02:33;;;;;;;6.30;5.70;;;;;;;13.74;87.15;100529.84;102828;276;120741;-54
2023/05/17 09:05:12;;;;;;;6.00;5.50;;;;;;;13.77;87.32;100530.09;102883;276;106109;-54
2023/05/17 09:07:58;;;;;;;6.00;5.40;;;;;;;13.79;87.18;100531.23;102829;276;114103;-53
2023/05/17 09:10:39;;;;;;;5.50;5.00;;;;;;;13.71;87.27;100519.45;102859;276;96938;-57
2023/05/17 09:13:26;;;;;;;5.90;5.30;;;;;;;13.80;87.40;100522.74;102800;276;96988;-57
2023/05/17 09:16:15;;;;;;;5.30;4.80;;;;;;;14.08;87.22;100522.00;102793;300;121225;-56
2023/05/17 09:18:57;;;;;;;6.20;5.50;;;;;;;14.15;87.06;100526.82;102756;276;105370;-57
2023/05/17 09:21:35;;;;;;;7.80;5.90;;;;;;;14.06;86.88;100528.80;102761;276;113290;-58
2023/05/17 09:24:12;;;;;;;6.90;6.30;;;;;;;13.82;86.85;100528.85;102790;276;95583;-57
2023/05/17 09:26:53;;;;;;;6.80;5.80;;;;;;;13.70;86.75;100529.55;102752;276;97519;-56
2023/05/17 09:29:32;;;;;;;6.40;5.50;;;;;;;13.57;86.72;100534.86;102725;276;119309;-56
2023/05/17 09:32:21;;;;;;;7.10;6.40;;;;;;;13.51;86.50;100538.39;102727;276;104414;-56
2023/05/17 09:35:02;;;;;;;7.80;6.50;;;;;;;13.45;86.55;100536.13;102723;276;114222;-52
2023/05/17 09:37:39;;;;;;;8.10;6.70;;;;;;;13.36;86.58;100539.73;102748;276;95751;-54
2023/05/17 09:40:30;;;;;;;7.90;6.80;;;;;;;13.32;86.79;100544.39;102754;276;97334;-57
2023/05/17 09:43:11;;;;;;;7.20;6.50;;;;;;;13.28;86.64;100548.59;102673;276;120842;-56
2023/05/17 09:45:57;;;;;;;6.40;5.80;;;;;;;13.17;86.59;100553.14;102737;265;105221;-54
2023/05/17 09:48:35;;;;;;;7.20;6.50;;;;;;;13.11;86.47;100550.02;102725;276;114692;-55
2023/05/17 09:51:16;;;;;;;6.60;5.80;;;;;;;13.13;86.54;100546.81;102691;276;96914;-56
2023/05/17 09:53:58;;;;;;;7.40;5.90;;;;;;;13.16;86.58;100552.98;102764;276;98127;-56
2023/05/17 09:56:38;;;;;;;8.60;6.40;;;;;;;13.22;86.63;100553.73;102696;276;120191;-56
2023/05/17 09:59:27;;;;;;;8.80;6.40;;;;;;;13.24;86.53;100562.14;102738;276;106122;-52
2023/05/17 10:02:12;;;;;;;8.40;6.00;;;;;;;13.25;86.40;100564.48;102721;276;113533;-54
2023/05/17 10:04:56;;;;;;;9.10;6.60;;;;;;;13.28;86.55;100565.96;102716;276;96221;-55
2023/05/17 10:07:37;;;;;;;7.30;6.00;;;;;;;13.25;86.45;100568.11;102714;276;97775;-56
2023/05/17 10:10:13;;;;;;;10.10;6.50;;;;;;;13.15;86.23;100567.39;102728;276;121063;-56
2023/05/17 10:12:54;;;;;;;11.20;6.80;;;;;;;13.09;86.34;100568.48;102713;276;105280;-57
2023/05/17 10:15:32;;;;;;;10.70;6.80;;;;;;;13.14;85.97;100564.05;102735;276;115468;-56
2023/05/17 10:18:16;;;;;;;8.40;7.00;;;;;;;13.15;86.10;100562.11;102710;276;96777;-56
2023/05/17 10:21:00;;;;;;;8.80;6.20;;;;;;;13.24;86.09;100560.02;102772;276;98182;-53
2023/05/17 10:23:37;;;;;;;8.50;7.00;;;;;;;13.23;86.03;100563.39;102742;276;120395;-55
2023/05/17 10:26:18;;;;;;;10.30;6.80;;;;;;;13.25;85.93;100570.16;102780;276;106144;-56
2023/05/17 10:29:03;;;;;;;10.70;7.60;;;;;;;13.26;85.78;100571.91;102807;276;112372;-54
2023/05/17 10:31:49;;;;;;;15.40;9.80;;;;;;;13.27;85.92;100572.05;102588;278;96762;-53
2023/05/17 10:34:30;;;;;;;14.20;9.90;;;;;;;13.26;85.97;100577.67;102801;276;97472;-56
2023/05/17 10:37:08;;;;;;;9.80;6.70;;;;;;;13.29;85.67;100580.16;102824;276;121251;-56
2023/05/17 10:39:48;;;;;;;9.90;6.70;;;;;;;13.33;85.64;100582.67;102806;276;103628;-57
2023/05/17 10:42:24;;;;;;;9.00;6.30;;;;;;;13.24;85.66;100575.87;102786;276;114025;-56
2023/05/17 10:45:09;;;;;;;8.20;5.90;;;;;;;13.27;85.48;100575.52;102792;276;96395;-55
2023/05/17 10:47:48;;;;;;;12.40;6.50;;;;;;;13.34;85.74;100578.34;102806;276;98262;-56
2023/05/17 10:50:35;;;;;;;6.90;5.40;;;;;;;13.44;85.67;100575.57;102775;276;120796;-57
2023/05/17 10:53:18;;;;;;;10.70;5.90;;;;;;;13.40;85.77;100579.40;102764;276;105100;-56
2023/05/17 10:56:12;;;;;;;6.60;5.20;;;;;;;13.45;85.42;100585.98;102770;276;113756;-53
2023/05/17 10:59:18;;;;;;;9.40;5.90;;;;;;;13.53;85.59;100584.08;102770;276;96221;-57
2023/05/17 11:02:06;;;;;;;8.20;5.40;;;;;;;13.64;85.67;100578.73;102767;276;96909;-57
2023/05/17 11:04:52;;;;;;;8.50;6.00;;;;;;;13.61;85.82;100580.10;102759;276;121662;-56
2023/05/17 11:07:32;;;;;;;7.20;5.20;;;;;;;13.67;85.83;100581.58;102755;265;105242;-58
2023/05/17 11:10:15;;;;;;;11.80;4.60;;;;;;;13.65;85.69;100582.03;102759;276;114966;-52
2023/05/17 11:12:56;;;;;;;8.60;4.50;;;;;;;13.66;85.52;100583.80;102758;276;94059;-53
2023/05/17 11:15:40;;;;;;;6.50;4.10;;;;;;;13.71;85.36;100588.65;102772;276;96519;-54
2023/05/17 11:18:25;;;;;;;9.10;4.30;;;;;;;13.73;85.13;100590.65;102746;276;121498;-54
2023/05/17 11:21:24;;;;;;;6.90;4.40;;;;;;;13.81;84.93;100594.14;102758;276;105296;-54
2023/05/17 11:24:07;;;;;;;5.50;3.70;;;;;;;13.85;84.71;100595.36;102709;276;113507;-57
2023/05/17 11:26:47;;;;;;;6.70;3.80;;;;;;;13.78;84.70;100594.93;102765;276;97297;-57
2023/05/17 11:29:33;;;;;;;8.80;4.10;;;;;;;13.76;84.69;100601.27;102730;276;96136;-57
2023/05/17 11:32:13;;;;;;;8.00;4.30;;;;;;;13.77;84.82;100599.19;102741;276;120142;-57
2023/05/17 11:34:57;;;;;;;11.00;5.30;;;;;;;13.74;84.63;100601.60;102749;276;105424;-57
2023/05/17 11:37:43;;;;;;;6.70;3.60;;;;;;;13.76;84.55;100599.39;102521;276;116238;-57
2023/05/17 11:40:28;;;;;;;7.60;3.70;;;;;;;13.77;84.76;100597.98;102795;276;94709;-57
2023/05/17 11:43:21;;;;;;;9.50;3.80;;;;;;;13.79;84.92;100599.95;102782;276;96917;-56
2023/05/17 11:46:06;;;;;;;9.40;4.80;;;;;;;13.80;84.75;100599.86;102787;276;117852;-58
2023/05/17 11:48:52;;;;;;;7.30;4.10;;;;;;;13.84;84.67;100601.13;102814;276;105430;-54
2023/05/17 11:51:34;;;;;;;9.60;4.40;;;;;;;13.78;84.73;100599.52;102836;276;113549;-53
2023/05/17 11:54:14;;;;;;;8.20;4.80;;;;;;;13.71;84.88;100602.92;102836;276;96323;-53
2023/05/17 11:57:01;;;;;;;10.80;5.00;;;;;;;13.66;84.97;100599.05;102805;276;96838;-54
2023/05/17 11:59:44;;;;;;;7.90;4.50;;;;;;;13.79;85.01;100599.61;102790;276;119586;-57
2023/05/17 12:02:38;;;;;;;5.70;4.00;;;;;;;13.86;85.02;100596.55;102752;276;105865;-58
2023/05/17 12:05:22;;;;;;;8.30;4.50;;;;;;;13.78;84.93;100595.60;102780;276;113958;-53
2023/05/17 12:08:05;;;;;;;6.40;4.20;;;;;;;13.81;84.93;100600.37;102825;276;96099;-54
2023/05/17 12:10:51;;;;;;;8.80;4.30;;;;;;;13.86;85.24;100602.67;102831;276;97152;-54
2023/05/17 12:13:39;;;;;;;6.60;4.60;;;;;;;13.99;85.04;100602.98;102773;276;120412;-51
2023/05/17 12:16:27;;;;;;;10.20;4.70;;;;;;;14.05;85.48;100605.30;102778;276;105622;-54
2023/05/17 12:19:04;;;;;;;10.50;5.00;;;;;;;14.09;85.34;100608.86;102786;276;114649;-57
2023/05/17 12:21:47;;;;;;;7.30;4.10;;;;;;;14.11;85.42;100612.80;102726;276;96510;-57